createdAt,value
2023-11-13T00:01:06.926Z,3.42
2023-11-13T00:03:35.714Z,4.43
2023-11-13T00:06:04.602Z,3.60
2023-11-13T00:08:33.419Z,4.68
2023-11-13T00:11:02.693Z,3.97
2023-11-13T00:13:29.824Z,2.50
2023-11-13T00:15:58.896Z,3.10
2023-11-13T00:18:28.608Z,4.05
2023-11-13T00:20:59.403Z,3.20
2023-11-13T00:23:30.149Z,3.17
2023-11-13T00:25:58.839Z,3.58
2023-11-13T00:28:27.162Z,5.60
2023-11-13T00:30:56.428Z,6.68
2023-11-13T00:33:24.443Z,3.83
2023-11-13T00:35:54.106Z,3.85
2023-11-13T00:38:25.279Z,4.30
2023-11-13T00:40:53.452Z,3.63
2023-11-13T00:43:21.571Z,5.53
2023-11-13T00:45:49.725Z,3.55
2023-11-13T00:48:18.448Z,3.28
2023-11-13T00:50:46.961Z,3.78
2023-11-13T00:53:16.821Z,7.32
2023-11-13T00:55:44.643Z,3.03
2023-11-13T00:58:14.206Z,4.47
2023-11-13T01:00:45.375Z,4.15
2023-11-13T01:03:13.606Z,5.28
2023-11-13T01:05:41.751Z,3.88
2023-11-13T01:08:10.544Z,5.13
2023-11-13T01:10:40.895Z,5.85
2023-11-13T01:13:10.102Z,5.15
2023-11-13T01:15:38.109Z,5.80
2023-11-13T01:18:06.625Z,5.25
2023-11-13T01:20:35.610Z,5.85
2023-11-13T01:23:03.696Z,6.65
2023-11-13T01:25:36.694Z,6.07
2023-11-13T01:28:06.644Z,7.32
2023-11-13T01:30:34.936Z,9.60
2023-11-13T01:33:03.505Z,6.65
2023-11-13T01:35:39.449Z,8.07
2023-11-13T01:38:07.400Z,10.35
2023-11-13T01:40:35.512Z,8.02
2023-11-13T01:43:03.628Z,8.45
2023-11-13T01:45:32.978Z,8.38
2023-11-13T01:48:03.554Z,7.47
2023-11-13T01:50:31.832Z,9.75
2023-11-13T01:53:01.027Z,7.05
2023-11-13T01:55:30.325Z,9.85
2023-11-13T01:57:58.548Z,9.73
2023-11-13T02:00:27.651Z,8.50
2023-11-13T02:03:00.931Z,8.85
2023-11-13T02:05:30.955Z,8.90
2023-11-13T02:07:58.929Z,10.70
2023-11-13T02:10:28.318Z,12.52
2023-11-13T02:13:00.634Z,10.75
2023-11-13T02:15:28.983Z,11.40
2023-11-13T02:18:02.787Z,10.60
2023-11-13T02:20:34.287Z,10.85
2023-11-13T02:23:02.707Z,9.30
2023-11-13T02:25:37.809Z,10.75
2023-11-13T02:28:07.677Z,10.35
2023-11-13T02:30:39.367Z,10.63
2023-11-13T02:33:07.985Z,11.05
2023-11-13T02:35:36.176Z,9.35
2023-11-13T02:38:04.651Z,8.90
2023-11-13T02:40:33.909Z,9.85
2023-11-13T02:43:01.943Z,9.85
2023-11-13T02:45:30.259Z,11.00
2023-11-13T02:47:58.674Z,10.60
2023-11-13T02:50:27.017Z,10.20
2023-11-13T02:52:55.181Z,12.27
2023-11-13T02:55:23.108Z,10.27
2023-11-13T02:57:53.381Z,15.25
2023-11-13T03:00:22.005Z,10.32
2023-11-13T03:02:50.906Z,10.38
2023-11-13T03:05:19.238Z,12.98
2023-11-13T03:07:47.341Z,8.02
2023-11-13T03:10:15.634Z,12.55
2023-11-13T03:12:44.136Z,10.98
2023-11-13T03:15:14.327Z,11.40
2023-11-13T03:17:42.669Z,9.35
2023-11-13T03:20:11.250Z,9.30
2023-11-13T03:22:40.017Z,8.70
2023-11-13T03:25:09.888Z,10.05
2023-11-13T03:27:38.427Z,11.98
2023-11-13T03:30:08.701Z,8.73
2023-11-13T03:32:38.095Z,8.32
2023-11-13T03:35:08.214Z,11.82
2023-11-13T03:37:38.008Z,10.15
2023-11-13T03:40:08.525Z,12.38
2023-11-13T03:42:37.503Z,9.57
2023-11-13T03:45:06.991Z,10.25
2023-11-13T03:47:35.563Z,8.52
2023-11-13T03:50:06.999Z,11.48
2023-11-13T03:52:34.220Z,9.60
2023-11-13T03:55:02.061Z,10.73
2023-11-13T03:57:32.539Z,12.43
2023-11-13T04:00:00.546Z,10.15
2023-11-13T04:02:28.641Z,11.45
2023-11-13T04:04:56.486Z,15.38
2023-11-13T04:07:25.791Z,11.80
2023-11-13T04:09:53.852Z,10.52
2023-11-13T04:12:22.227Z,9.75
2023-11-13T04:14:50.186Z,11.02
2023-11-13T04:17:18.575Z,10.43
2023-11-13T04:19:46.665Z,11.02
2023-11-13T04:22:15.120Z,8.77
2023-11-13T04:24:45.050Z,8.20
2023-11-13T04:27:13.947Z,12.48
2023-11-13T04:29:42.171Z,10.65
2023-11-13T04:32:10.381Z,10.38
2023-11-13T04:34:38.464Z,9.55
2023-11-13T04:37:06.760Z,10.40
2023-11-13T04:39:35.295Z,9.32
2023-11-13T04:42:06.166Z,10.30
2023-11-13T04:44:34.775Z,8.50
2023-11-13T04:47:03.087Z,9.73
2023-11-13T04:49:32.497Z,7.90
2023-11-13T04:52:00.774Z,11.02
2023-11-13T04:54:28.826Z,10.68
2023-11-13T04:56:58.757Z,13.07
2023-11-13T04:59:28.185Z,10.50
2023-11-13T05:01:58.376Z,9.77
2023-11-13T05:04:27.752Z,9.77
2023-11-13T05:06:56.637Z,11.05
2023-11-13T05:09:27.448Z,9.52
2023-11-13T05:11:55.882Z,8.25
2023-11-13T05:14:24.436Z,9.00
2023-11-13T05:16:56.471Z,9.32
2023-11-13T05:19:24.969Z,13.55
2023-11-13T05:21:53.145Z,10.13
2023-11-13T05:24:24.652Z,10.98
2023-11-13T05:26:53.811Z,8.35
2023-11-13T05:29:22.108Z,12.40
2023-11-13T05:31:50.246Z,11.77
2023-11-13T05:34:20.110Z,10.77
2023-11-13T05:36:48.549Z,9.45
2023-11-13T05:39:17.245Z,9.85
2023-11-13T05:41:45.904Z,12.20
2023-11-13T05:44:14.207Z,10.35
2023-11-13T05:46:43.292Z,15.10
2023-11-13T05:49:13.404Z,12.70
2023-11-13T05:51:43.493Z,16.05
2023-11-13T05:54:13.444Z,10.63
2023-11-13T05:56:42.079Z,13.68
2023-11-13T05:59:11.382Z,12.07
2023-11-13T06:01:40.129Z,12.45
2023-11-13T06:04:08.822Z,13.57
2023-11-13T06:06:37.256Z,17.02
2023-11-13T06:09:07.489Z,12.27
2023-11-13T06:11:35.574Z,11.63
2023-11-13T06:14:07.318Z,13.23
2023-11-13T06:16:35.747Z,15.25
2023-11-13T06:19:08.968Z,12.15
2023-11-13T06:21:37.437Z,9.50
2023-11-13T06:24:12.584Z,13.40
2023-11-13T06:26:44.671Z,17.45
2023-11-13T06:29:14.076Z,18.52
2023-11-13T06:31:42.221Z,18.30
2023-11-13T06:34:10.886Z,21.38
2023-11-13T06:36:46.877Z,22.33
2023-11-13T06:39:18.588Z,19.40
2023-11-13T06:41:47.139Z,26.98
2023-11-13T06:44:15.184Z,22.00
2023-11-13T06:46:43.438Z,30.15
2023-11-13T06:49:12.041Z,29.45
2023-11-13T06:51:40.245Z,21.80
2023-11-13T06:54:12.602Z,27.67
2023-11-13T06:56:42.398Z,32.42
2023-11-13T06:59:12.278Z,33.22
2023-11-13T07:01:45.599Z,29.15
2023-11-13T07:04:14.368Z,22.13
2023-11-13T07:06:45.501Z,29.35
2023-11-13T07:09:13.775Z,26.65
2023-11-13T07:11:49.158Z,30.88
2023-11-13T07:14:18.031Z,27.90
2023-11-13T07:16:46.611Z,30.20
2023-11-13T07:19:17.710Z,34.22
2023-11-13T07:21:46.635Z,29.17
2023-11-13T07:24:14.781Z,34.67
2023-11-13T07:26:44.853Z,30.67
2023-11-13T07:29:13.231Z,28.58
2023-11-13T07:31:43.802Z,32.42
2023-11-13T07:34:12.352Z,31.23
2023-11-13T07:36:40.753Z,34.22
2023-11-13T07:39:11.203Z,29.42
2023-11-13T07:41:39.835Z,25.63
2023-11-13T07:44:16.017Z,33.65
2023-11-13T07:46:47.718Z,32.60
2023-11-13T07:49:18.177Z,32.63
2023-11-13T07:51:46.714Z,30.40
2023-11-13T07:54:15.484Z,27.73
2023-11-13T07:56:43.950Z,24.70
2023-11-13T07:59:17.310Z,29.50
2023-11-13T08:01:45.801Z,24.42
2023-11-13T08:04:15.209Z,26.27
2023-11-13T08:06:45.884Z,23.08
2023-11-13T08:09:16.795Z,28.85
2023-11-13T08:11:46.442Z,24.92
2023-11-13T08:14:16.479Z,26.73
2023-11-13T08:16:44.702Z,19.95
2023-11-13T08:19:13.440Z,20.25
2023-11-13T08:21:44.790Z,18.45
2023-11-13T08:24:13.087Z,22.60
2023-11-13T08:26:42.092Z,20.77
2023-11-13T08:29:11.455Z,23.08
2023-11-13T08:31:41.953Z,19.42
2023-11-13T08:34:10.640Z,22.73
2023-11-13T08:36:39.108Z,17.65
2023-11-13T08:39:09.082Z,17.90
2023-11-13T08:41:37.827Z,16.13
2023-11-13T08:44:08.630Z,20.67
2023-11-13T08:46:37.531Z,19.45
2023-11-13T08:49:08.708Z,15.38
2023-11-13T08:51:39.802Z,18.15
2023-11-13T08:54:08.509Z,12.75
2023-11-13T08:56:36.807Z,17.38
2023-11-13T08:59:05.457Z,18.63
2023-11-13T09:01:34.293Z,18.65
2023-11-13T09:04:03.020Z,16.55
2023-11-13T09:06:36.924Z,12.38
2023-11-13T09:09:13.629Z,17.38
2023-11-13T09:11:43.229Z,12.90
2023-11-13T09:14:13.638Z,15.85
2023-11-13T09:16:45.626Z,16.02
2023-11-13T09:21:47.238Z,16.50
2023-11-13T09:24:16.001Z,10.93
2023-11-13T09:26:45.421Z,16.95
2023-11-13T09:29:13.915Z,15.27
2023-11-13T09:31:44.037Z,14.57
2023-11-13T09:34:18.646Z,21.48
2023-11-13T09:36:49.996Z,16.80
2023-11-13T09:39:19.985Z,14.73
2023-11-13T09:41:52.976Z,14.38
2023-11-13T09:44:25.248Z,15.57
2023-11-13T09:46:55.183Z,13.07
2023-11-13T09:49:30.002Z,13.85
2023-11-13T09:52:06.920Z,11.80
2023-11-13T09:54:37.273Z,15.85
2023-11-13T09:57:06.737Z,15.68
2023-11-13T09:59:39.000Z,9.55
2023-11-13T10:02:09.782Z,10.18
2023-11-13T10:04:38.742Z,16.27
2023-11-13T10:07:12.279Z,7.53
2023-11-13T10:09:43.847Z,13.98
2023-11-13T10:15:04.293Z,9.15
2023-11-13T10:17:47.043Z,11.55
2023-11-13T10:20:18.677Z,9.52
2023-11-13T10:22:58.873Z,6.38
2023-11-13T10:25:28.601Z,7.40
2023-11-13T10:28:02.729Z,13.35
2023-11-13T10:30:31.668Z,5.45
2023-11-13T10:33:00.576Z,6.60
2023-11-13T10:35:36.837Z,9.52
2023-11-13T10:38:09.328Z,8.90
2023-11-13T10:40:45.188Z,5.32
2023-11-13T10:43:13.767Z,8.57
2023-11-13T10:45:49.078Z,8.90
2023-11-13T10:48:21.873Z,6.28
2023-11-13T10:50:52.122Z,7.32
2023-11-13T10:53:26.224Z,7.70
2023-11-13T10:55:56.455Z,7.13
2023-11-13T10:58:28.710Z,5.82
2023-11-13T11:01:03.390Z,5.75
2023-11-13T11:03:34.152Z,11.13
2023-11-13T11:06:11.233Z,6.28
2023-11-13T11:08:47.522Z,9.15
2023-11-13T11:11:17.177Z,13.82
2023-11-13T11:13:52.260Z,5.75
2023-11-13T11:16:38.009Z,7.75
2023-11-13T11:19:18.551Z,7.50
2023-11-13T11:22:02.625Z,8.88
2023-11-13T11:25:10.286Z,9.20
2023-11-13T11:27:56.394Z,15.07
2023-11-13T11:30:39.614Z,12.25
2023-11-13T11:33:10.784Z,17.50
2023-11-13T11:35:43.747Z,16.98
2023-11-13T11:38:24.550Z,16.30
2023-11-13T11:41:02.774Z,14.38
2023-11-13T11:43:39.055Z,17.58
2023-11-13T11:46:20.700Z,13.93
2023-11-13T11:48:56.737Z,15.40
2023-11-13T11:51:25.470Z,14.27
2023-11-13T11:53:59.283Z,17.67
2023-11-13T11:56:47.429Z,16.63
2023-11-13T11:59:23.746Z,12.10
2023-11-13T12:01:54.465Z,13.95
2023-11-13T12:04:22.947Z,11.02
2023-11-13T12:06:53.685Z,13.25
2023-11-13T12:09:24.046Z,19.00
2023-11-13T12:12:01.869Z,13.60
2023-11-13T12:14:44.472Z,13.95
2023-11-13T12:17:16.049Z,10.23
2023-11-13T12:19:45.615Z,11.90
2023-11-13T12:22:26.733Z,12.18
2023-11-13T12:24:57.850Z,15.25
2023-11-13T12:27:33.950Z,13.98
2023-11-13T12:30:14.766Z,14.75
2023-11-13T12:32:50.689Z,12.43
2023-11-13T12:35:27.839Z,12.77
2023-11-13T12:38:04.634Z,12.18
2023-11-13T12:40:35.869Z,8.77
2023-11-13T12:43:09.364Z,10.60
2023-11-13T12:48:14.894Z,11.52
2023-11-13T12:51:02.088Z,10.75
2023-11-13T12:56:14.980Z,13.30
2023-11-13T12:58:45.518Z,11.52
2023-11-13T13:01:33.375Z,14.45
2023-11-13T13:04:07.620Z,12.32
2023-11-13T13:07:04.315Z,10.93
2023-11-13T13:09:50.569Z,11.57
2023-11-13T13:12:30.563Z,12.80
2023-11-13T13:15:02.587Z,11.88
2023-11-13T13:17:33.820Z,11.52
2023-11-13T13:20:07.317Z,11.23
2023-11-13T13:22:37.489Z,13.80
2023-11-13T13:25:08.016Z,8.40
2023-11-13T13:27:43.643Z,10.25
2023-11-13T13:30:15.727Z,11.25
2023-11-13T13:32:44.687Z,7.75
2023-11-13T13:35:14.127Z,11.93
2023-11-13T13:37:44.134Z,11.82
2023-11-13T13:40:13.726Z,13.00
2023-11-13T13:42:43.440Z,9.35
2023-11-13T13:45:18.991Z,7.50
2023-11-13T13:47:50.373Z,11.07
2023-11-13T13:50:22.365Z,7.95
2023-11-13T13:52:57.595Z,5.78
2023-11-13T13:55:37.600Z,7.30
2023-11-13T13:58:11.307Z,5.60
2023-11-13T14:00:43.514Z,9.57
2023-11-13T14:03:13.907Z,8.95
2023-11-13T14:05:47.983Z,8.07
2023-11-13T14:10:51.480Z,6.05
2023-11-13T14:13:23.756Z,8.27
2023-11-13T14:16:04.146Z,11.27
2023-11-13T14:18:38.798Z,5.53
2023-11-13T14:21:10.272Z,7.32
2023-11-13T14:23:39.444Z,5.00
2023-11-13T14:26:10.439Z,7.32
2023-11-13T14:28:38.722Z,6.93
2023-11-13T14:31:10.891Z,7.03
2023-11-13T14:33:40.545Z,8.63
2023-11-13T14:36:10.972Z,7.47
2023-11-13T14:38:43.039Z,6.18
2023-11-13T14:41:14.078Z,7.35
2023-11-13T14:43:42.203Z,10.75
2023-11-13T14:46:13.164Z,5.22
2023-11-13T14:48:41.402Z,5.28
2023-11-13T14:51:12.005Z,6.68
2023-11-13T14:53:42.431Z,3.60
2023-11-13T14:56:11.846Z,8.00
2023-11-13T14:58:40.035Z,9.23
2023-11-13T15:01:08.510Z,8.57
2023-11-13T15:03:40.384Z,6.43
2023-11-13T15:06:09.870Z,5.80
2023-11-13T15:08:37.844Z,6.03
2023-11-13T15:11:13.484Z,7.13
2023-11-13T15:13:46.889Z,4.03
2023-11-13T15:18:53.333Z,8.80
2023-11-13T15:21:22.239Z,5.63
2023-11-13T15:23:51.950Z,7.43
2023-11-13T15:26:20.687Z,4.65
2023-11-13T15:28:48.288Z,6.78
2023-11-13T15:31:18.706Z,6.40
2023-11-13T15:33:48.856Z,3.97
2023-11-13T15:36:22.181Z,4.57
2023-11-13T15:38:51.723Z,5.20
2023-11-13T15:41:29.536Z,9.23
2023-11-13T15:43:59.015Z,4.93
2023-11-13T15:46:29.929Z,3.70
2023-11-13T15:48:59.503Z,8.43
2023-11-13T15:51:34.290Z,5.30
2023-11-13T15:54:02.912Z,5.43
2023-11-13T15:56:32.591Z,5.78
2023-11-13T15:59:01.156Z,4.60
2023-11-13T16:01:33.047Z,2.95
2023-11-13T16:04:02.495Z,4.95
2023-11-13T16:06:36.072Z,6.03
2023-11-13T16:09:06.298Z,4.40
2023-11-13T16:11:34.565Z,7.63
2023-11-13T16:14:03.010Z,4.38
2023-11-13T16:16:31.433Z,6.95
2023-11-13T16:18:59.737Z,4.25
2023-11-13T16:21:29.570Z,6.38
2023-11-13T16:23:59.798Z,4.30
2023-11-13T16:26:30.797Z,3.17
2023-11-13T16:28:59.136Z,3.55
2023-11-13T16:31:27.508Z,7.97
2023-11-13T16:33:56.060Z,2.50
2023-11-13T16:36:24.303Z,2.50
2023-11-13T16:38:56.190Z,2.83
2023-11-13T16:41:45.651Z,5.13
2023-11-13T16:44:18.967Z,5.82
2023-11-13T16:46:47.330Z,4.03
2023-11-13T16:49:17.942Z,4.78
2023-11-13T16:51:46.213Z,10.82
2023-11-13T16:54:14.432Z,3.28
2023-11-13T16:56:43.798Z,4.43
2023-11-13T16:59:11.855Z,4.40
2023-11-13T17:01:43.709Z,6.88
2023-11-13T17:04:12.556Z,5.25
2023-11-13T17:06:40.564Z,3.67
2023-11-13T17:09:10.151Z,6.28
2023-11-13T17:14:44.896Z,3.00
2023-11-13T17:17:15.408Z,3.72
2023-11-13T17:19:44.959Z,2.20
2023-11-13T17:22:13.379Z,1.27
2023-11-13T17:24:45.284Z,2.30
2023-11-13T17:27:14.812Z,1.58
2023-11-13T17:29:44.408Z,1.45
2023-11-13T17:32:13.676Z,1.63
2023-11-13T17:34:43.106Z,1.85
2023-11-13T17:37:11.857Z,1.40
2023-11-13T17:39:40.014Z,1.13
2023-11-13T17:42:08.177Z,3.38
2023-11-13T17:44:36.477Z,0.98
2023-11-13T17:47:06.646Z,4.32
2023-11-13T17:49:35.245Z,1.45
2023-11-13T17:52:06.430Z,0.85
2023-11-13T17:54:36.907Z,2.10
2023-11-13T17:57:09.817Z,1.88
2023-11-13T17:59:38.343Z,1.33
2023-11-13T18:02:09.516Z,1.13
2023-11-13T18:04:39.774Z,1.95
2023-11-13T18:07:08.558Z,0.85
2023-11-13T18:09:39.867Z,1.25
2023-11-13T18:12:09.392Z,2.80
2023-11-13T18:14:37.827Z,1.70
2023-11-13T18:17:08.436Z,0.60
2023-11-13T18:19:36.751Z,2.25
2023-11-13T18:22:05.953Z,0.80
2023-11-13T18:24:35.402Z,2.30
2023-11-13T18:27:09.336Z,1.08
2023-11-13T18:29:41.260Z,4.40
2023-11-13T18:32:11.548Z,2.35
2023-11-13T18:34:42.353Z,2.80
2023-11-13T18:37:11.423Z,1.45
2023-11-13T18:39:39.802Z,1.55
2023-11-13T18:42:08.002Z,3.00
2023-11-13T18:44:36.108Z,1.13
2023-11-13T18:47:05.051Z,1.80
2023-11-13T18:50:16.463Z,0.50
2023-11-13T18:53:44.347Z,4.90
2023-11-13T18:57:11.700Z,5.30
2023-11-13T19:00:39.157Z,2.45
2023-11-13T19:04:03.555Z,2.10
2023-11-13T19:06:43.419Z,1.30
2023-11-13T19:09:14.062Z,1.98
2023-11-13T19:11:44.510Z,5.40
2023-11-13T19:14:14.143Z,2.72
2023-11-13T19:16:42.446Z,3.10
2023-11-13T19:19:12.051Z,2.55
2023-11-13T19:21:41.455Z,5.25
2023-11-13T19:24:12.411Z,5.30
2023-11-13T19:26:40.198Z,3.78
2023-11-13T19:29:11.445Z,7.93
2023-11-13T19:31:41.837Z,4.65
2023-11-13T19:34:10.095Z,1.33
2023-11-13T19:36:38.068Z,5.10
2023-11-13T19:39:07.822Z,4.18
2023-11-13T19:41:36.514Z,4.95
2023-11-13T19:44:05.163Z,4.72
2023-11-13T19:46:34.495Z,4.45
2023-11-13T19:49:05.761Z,0.93
2023-11-13T19:51:33.953Z,2.53
2023-11-13T19:54:01.896Z,1.55
2023-11-13T19:56:31.942Z,3.20
2023-11-13T19:59:02.919Z,7.63
2023-11-13T20:01:31.015Z,1.95
2023-11-13T20:03:59.629Z,6.43
2023-11-13T20:06:27.768Z,4.65
2023-11-13T20:08:59.268Z,3.50
2023-11-13T20:11:27.304Z,6.60
2023-11-13T20:14:01.018Z,2.67
2023-11-13T20:16:30.260Z,6.50
2023-11-13T20:18:59.127Z,3.03
2023-11-13T20:21:27.781Z,7.82
2023-11-13T20:23:55.720Z,5.03
2023-11-13T20:26:24.193Z,2.42
2023-11-13T20:28:52.626Z,3.30
2023-11-13T20:31:23.039Z,9.43
2023-11-13T20:33:52.271Z,7.60
2023-11-13T20:36:20.266Z,2.85
2023-11-13T21:01:22.392Z,6.60
2023-11-13T21:13:34.121Z,5.40
2023-11-13T21:28:36.209Z,8.45
2023-11-13T21:46:51.189Z,6.45
2023-11-13T23:56:20.142Z,8.35
2023-11-13T23:58:49.707Z,6.95
